PRIVATE WETTERSTATION BILLIGHEIM-ALLFELD                       ZURCK
Wetterdaten: Sonntag, 28.12.2014
Datum Zeit Temp. A. Temp. A. min Temp. A. max Feuchte A. Luftdruck Regen Wind Richtung Richtung Sonnenschein ET Solar Taupunkt Windchill Windben Empfang
28.12.2014 00:00 -2,6 C -2,6 C -2,5 C 92 % 1000,3 hPa 0,0 l/m 0,0 km/h (0 Bft) NO 45 0 min 0,000 mm 0 W/m -3,7 C -2,6 C 4,8 km/h (1 Bft) 97 %
28.12.2014 00:10 -2,7 C -2,7 C -2,6 C 92 % 1000,4 hPa 0,1 l/m 0,0 km/h (0 Bft) NO 45 0 min 0,000 mm 0 W/m -3,8 C -2,7 C 4,8 km/h (1 Bft) 98 %
28.12.2014 00:20 -2,7 C -2,7 C -2,7 C 92 % 1000,4 hPa 0,0 l/m 0,0 km/h (0 Bft) NO 45 0 min 0,000 mm 0 W/m -3,8 C -2,7 C 6,4 km/h (2 Bft) 98 %
28.12.2014 00:30 -2,8 C -2,8 C -2,7 C 92 % 1000,5 hPa 0,1 l/m 0,0 km/h (0 Bft) NO 45 0 min 0,000 mm 0 W/m -3,9 C -2,8 C 4,8 km/h (1 Bft) 97 %
28.12.2014 00:40 -2,8 C -2,8 C -2,8 C 92 % 1000,6 hPa 0,0 l/m 1,6 km/h (1 Bft) NO 45 0 min 0,000 mm 0 W/m -3,9 C -2,8 C 6,4 km/h (2 Bft) 98 %
28.12.2014 00:50 -2,9 C -2,9 C -2,8 C 92 % 1000,9 hPa 0,0 l/m 1,6 km/h (1 Bft) NO 45 0 min 0,000 mm 0 W/m -4,0 C -2,9 C 4,8 km/h (1 Bft) 97 %
28.12.2014 01:00 -3,0 C -3,0 C -2,9 C 92 % 1001,0 hPa 0,1 l/m 0,0 km/h (0 Bft) NO 45 0 min 0,000 mm 0 W/m -4,1 C -3,0 C 6,4 km/h (2 Bft) 98 %
28.12.2014 01:10 -3,1 C -3,1 C -3,0 C 92 % 1001,1 hPa 0,0 l/m 1,6 km/h (1 Bft) NO 45 0 min 0,000 mm 0 W/m -4,2 C -3,1 C 8,0 km/h (2 Bft) 97 %
28.12.2014 01:20 -3,2 C -3,2 C -3,1 C 92 % 1001,4 hPa 0,0 l/m 1,6 km/h (1 Bft) NO 45 0 min 0,000 mm 0 W/m -4,3 C -3,2 C 6,4 km/h (2 Bft) 97 %
28.12.2014 01:30 -3,1 C -3,2 C -3,1 C 92 % 1001,4 hPa 0,0 l/m 1,6 km/h (1 Bft) NO 45 0 min 0,000 mm 0 W/m -4,2 C -3,1 C 6,4 km/h (2 Bft) 99 %
28.12.2014 01:40 -3,1 C -3,1 C -3,1 C 92 % 1001,6 hPa 0,0 l/m 0,0 km/h (0 Bft) NO 45 0 min 0,000 mm 0 W/m -4,2 C -3,1 C 4,8 km/h (1 Bft) 97 %
28.12.2014 01:50 -3,1 C -3,2 C -3,1 C 92 % 1001,8 hPa 0,0 l/m 1,6 km/h (1 Bft) NO 45 0 min 0,000 mm 0 W/m -4,2 C -3,1 C 8,0 km/h (2 Bft) 98 %
28.12.2014 02:00 -3,1 C -3,1 C -3,1 C 92 % 1001,9 hPa 0,1 l/m 1,6 km/h (1 Bft) NO 45 0 min 0,000 mm 0 W/m -4,2 C -3,1 C 4,8 km/h (1 Bft) 87 %
28.12.2014 02:10 -3,1 C -3,1 C -3,1 C 93 % 1002,1 hPa 0,0 l/m 1,6 km/h (1 Bft) NO 45 0 min 0,000 mm 0 W/m -4,1 C -3,1 C 6,4 km/h (2 Bft) 98 %
28.12.2014 02:20 -3,1 C -3,1 C -3,1 C 92 % 1002,2 hPa 0,0 l/m 1,6 km/h (1 Bft) NO 45 0 min 0,000 mm 0 W/m -4,2 C -3,1 C 8,0 km/h (2 Bft) 98 %
28.12.2014 02:30 -3,1 C -3,2 C -3,1 C 93 % 1002,5 hPa 0,0 l/m 1,6 km/h (1 Bft) NO 45 0 min 0,000 mm 0 W/m -4,1 C -3,1 C 8,0 km/h (2 Bft) 97 %
28.12.2014 02:40 -3,2 C -3,2 C -3,1 C 93 % 1002,7 hPa 0,0 l/m 0,0 km/h (0 Bft) NO 45 0 min 0,000 mm 0 W/m -4,2 C -3,2 C 6,4 km/h (2 Bft) 98 %
28.12.2014 02:50 -3,2 C -3,2 C -3,2 C 93 % 1002,9 hPa 0,0 l/m 0,0 km/h (0 Bft) N-NO 22 0 min 0,000 mm 0 W/m -4,2 C -3,2 C 6,4 km/h (2 Bft) 96 %
28.12.2014 03:00 -3,2 C -3,2 C -3,2 C 92 % 1003,2 hPa 0,0 l/m 1,6 km/h (1 Bft) NO 45 0 min 0,000 mm 0 W/m -4,3 C -3,2 C 8,0 km/h (2 Bft) 98 %
28.12.2014 03:10 -3,2 C -3,2 C -3,2 C 92 % 1003,4 hPa 0,0 l/m 1,6 km/h (1 Bft) NO 45 0 min 0,000 mm 0 W/m -4,3 C -3,2 C 8,0 km/h (2 Bft) 88 %
28.12.2014 03:20 -3,2 C -3,2 C -3,2 C 92 % 1003,6 hPa 0,0 l/m 0,0 km/h (0 Bft) NO 45 0 min 0,000 mm 0 W/m -4,3 C -3,2 C 4,8 km/h (1 Bft) 98 %
28.12.2014 03:30 -3,2 C -3,2 C -3,2 C 92 % 1003,8 hPa 0,0 l/m 1,6 km/h (1 Bft) N-NO 22 0 min 0,000 mm 0 W/m -4,3 C -3,2 C 8,0 km/h (2 Bft) 98 %
28.12.2014 03:40 -3,2 C -3,2 C -3,2 C 92 % 1004,0 hPa 0,0 l/m 1,6 km/h (1 Bft) NO 45 0 min 0,000 mm 0 W/m -4,3 C -3,2 C 9,7 km/h (2 Bft) 97 %
28.12.2014 03:50 -3,2 C -3,2 C -3,2 C 92 % 1004,2 hPa 0,0 l/m 1,6 km/h (1 Bft) NO 45 0 min 0,000 mm 0 W/m -4,3 C -3,2 C 9,7 km/h (2 Bft) 98 %
28.12.2014 04:00 -3,2 C -3,2 C -3,2 C 92 % 1004,5 hPa 0,0 l/m 1,6 km/h (1 Bft) NO 45 0 min 0,000 mm 0 W/m -4,3 C -3,2 C 6,4 km/h (2 Bft) 98 %
28.12.2014 04:10 -3,2 C -3,2 C -3,2 C 92 % 1004,7 hPa 0,0 l/m 1,6 km/h (1 Bft) NO 45 0 min 0,000 mm 0 W/m -4,3 C -3,2 C 8,0 km/h (2 Bft) 97 %
28.12.2014 04:20 -3,2 C -3,3 C -3,2 C 92 % 1005,0 hPa 0,0 l/m 1,6 km/h (1 Bft) NO 45 0 min 0,000 mm 0 W/m -4,3 C -3,2 C 6,4 km/h (2 Bft) 89 %
28.12.2014 04:30 -3,3 C -3,3 C -3,2 C 92 % 1005,2 hPa 0,0 l/m 1,6 km/h (1 Bft) NO 45 0 min 0,000 mm 0 W/m -4,4 C -3,3 C 8,0 km/h (2 Bft) 97 %
28.12.2014 04:40 -3,3 C -3,3 C -3,3 C 92 % 1005,5 hPa 0,0 l/m 1,6 km/h (1 Bft) NO 45 0 min 0,000 mm 0 W/m -4,4 C -3,3 C 8,0 km/h (2 Bft) 97 %
28.12.2014 04:50 -3,4 C -3,4 C -3,3 C 92 % 1005,6 hPa 0,0 l/m 3,2 km/h (1 Bft) NO 45 0 min 0,000 mm 0 W/m -4,5 C -3,4 C 9,7 km/h (2 Bft) 98 %
28.12.2014 05:00 -3,4 C -3,4 C -3,3 C 92 % 1005,9 hPa 0,0 l/m 1,6 km/h (1 Bft) NO 45 0 min 0,000 mm 0 W/m -4,5 C -3,4 C 11,3 km/h (2 Bft) 97 %
28.12.2014 05:10 -3,4 C -3,4 C -3,4 C 91 % 1006,2 hPa 0,0 l/m 4,8 km/h (1 Bft) NO 45 0 min 0,000 mm 0 W/m -4,7 C -3,4 C 11,3 km/h (2 Bft) 97 %
28.12.2014 05:20 -3,4 C -3,4 C -3,4 C 91 % 1006,4 hPa 0,0 l/m 1,6 km/h (1 Bft) NO 45 0 min 0,000 mm 0 W/m -4,7 C -3,4 C 11,3 km/h (2 Bft) 97 %
28.12.2014 05:30 -3,5 C -3,5 C -3,4 C 91 % 1006,7 hPa 0,0 l/m 1,6 km/h (1 Bft) NO 45 0 min 0,000 mm 0 W/m -4,8 C -3,5 C 9,7 km/h (2 Bft) 98 %
28.12.2014 05:40 -3,6 C -3,6 C -3,4 C 91 % 1006,9 hPa 0,0 l/m 1,6 km/h (1 Bft) NO 45 0 min 0,000 mm 0 W/m -4,8 C -3,6 C 8,0 km/h (2 Bft) 97 %
28.12.2014 05:50 -3,6 C -3,6 C -3,6 C 91 % 1007,1 hPa 0,0 l/m 1,6 km/h (1 Bft) NO 45 0 min 0,000 mm 0 W/m -4,8 C -3,6 C 9,7 km/h (2 Bft) 98 %
28.12.2014 06:00 -3,7 C -3,7 C -3,6 C 91 % 1007,3 hPa 0,0 l/m 0,0 km/h (0 Bft) NO 45 0 min 0,000 mm 0 W/m -4,9 C -3,7 C 8,0 km/h (2 Bft) 97 %
28.12.2014 06:10 -3,8 C -3,8 C -3,7 C 91 % 1007,7 hPa 0,0 l/m 1,6 km/h (1 Bft) NO 45 0 min 0,000 mm 0 W/m -5,0 C -3,8 C 9,7 km/h (2 Bft) 97 %
28.12.2014 06:20 -3,8 C -3,8 C -3,8 C 91 % 1007,8 hPa 0,0 l/m 1,6 km/h (1 Bft) NO 45 0 min 0,000 mm 0 W/m -5,0 C -3,8 C 8,0 km/h (2 Bft) 98 %
28.12.2014 06:30 -3,9 C -3,9 C -3,8 C 90 % 1008,1 hPa 0,0 l/m 0,0 km/h (0 Bft) NO 45 0 min 0,000 mm 0 W/m -5,3 C -3,9 C 8,0 km/h (2 Bft) 97 %
28.12.2014 06:40 -3,9 C -3,9 C -3,9 C 90 % 1008,5 hPa 0,0 l/m 0,0 km/h (0 Bft) NO 45 0 min 0,000 mm 0 W/m -5,3 C -3,9 C 6,4 km/h (2 Bft) 98 %
28.12.2014 06:50 -3,9 C -3,9 C -3,9 C 90 % 1008,8 hPa 0,0 l/m 0,0 km/h (0 Bft) NO 45 0 min 0,000 mm 0 W/m -5,3 C -3,9 C 6,4 km/h (2 Bft) 97 %
28.12.2014 07:00 -4,0 C -4,0 C -3,9 C 90 % 1009,1 hPa 0,0 l/m 1,6 km/h (1 Bft) NO 45 0 min 0,000 mm 0 W/m -5,4 C -4,0 C 16,1 km/h (3 Bft) 98 %
28.12.2014 07:10 -4,1 C -4,1 C -4,0 C 90 % 1009,5 hPa 0,0 l/m 0,0 km/h (0 Bft) NO 45 0 min 0,000 mm 0 W/m -5,5 C -4,1 C 3,2 km/h (1 Bft) 97 %
28.12.2014 07:20 -4,1 C -4,1 C -4,1 C 90 % 1009,7 hPa 0,0 l/m 0,0 km/h (0 Bft) N-NO 22 0 min 0,000 mm 0 W/m -5,5 C -4,1 C 9,7 km/h (2 Bft) 97 %
28.12.2014 07:30 -4,2 C -4,2 C -4,1 C 90 % 1010,0 hPa 0,0 l/m 0,0 km/h (0 Bft) NO 45 0 min 0,000 mm 0 W/m -5,6 C -4,2 C 6,4 km/h (2 Bft) 98 %
28.12.2014 07:40 -4,2 C -4,2 C -4,2 C 90 % 1010,3 hPa 0,0 l/m 0,0 km/h (0 Bft) N-NO 22 0 min 0,000 mm 0 W/m -5,6 C -4,2 C 8,0 km/h (2 Bft) 97 %
28.12.2014 07:50 -4,2 C -4,2 C -4,2 C 90 % 1010,8 hPa 0,0 l/m 1,6 km/h (1 Bft) NO 45 0 min 0,000 mm 0 W/m -5,6 C -4,2 C 8,0 km/h (2 Bft) 98 %
28.12.2014 08:00 -4,1 C -4,2 C -4,1 C 90 % 1011,2 hPa 0,0 l/m 0,0 km/h (0 Bft) NO 45 0 min 0,000 mm 0 W/m -5,5 C -4,1 C 4,8 km/h (1 Bft) 98 %
28.12.2014 08:10 -4,1 C -4,1 C -4,1 C 90 % 1011,5 hPa 0,0 l/m 0,0 km/h (0 Bft) N-NO 22 0 min 0,000 mm 0 W/m -5,5 C -4,1 C 4,8 km/h (1 Bft) 97 %
28.12.2014 08:20 -4,0 C -4,1 C -4,0 C 90 % 1011,7 hPa 0,0 l/m 1,6 km/h (1 Bft) N-NO 22 0 min 0,000 mm 0 W/m -5,4 C -4,0 C 11,3 km/h (2 Bft) 98 %
28.12.2014 08:30 -4,0 C -4,0 C -4,0 C 89 % 1012,0 hPa 0,0 l/m 1,6 km/h (1 Bft) NO 45 0 min 0,000 mm 0 W/m -5,5 C -4,0 C 6,4 km/h (2 Bft) 97 %
28.12.2014 08:40 -4,1 C -4,1 C -4,0 C 89 % 1012,3 hPa 0,0 l/m 1,6 km/h (1 Bft) NO 45 0 min 0,000 mm 5 W/m -5,6 C -4,1 C 9,7 km/h (2 Bft) 98 %
28.12.2014 08:50 -4,2 C -4,2 C -4,1 C 89 % 1012,9 hPa 0,0 l/m 0,0 km/h (0 Bft) NO 45 0 min 0,000 mm 7 W/m -5,7 C -4,2 C 9,7 km/h (2 Bft) 97 %
28.12.2014 09:00 -4,2 C -4,2 C -4,2 C 89 % 1013,1 hPa 0,0 l/m 1,6 km/h (1 Bft) NO 45 0 min 0,000 mm 5 W/m -5,7 C -4,2 C 8,0 km/h (2 Bft) 98 %
28.12.2014 09:10 -4,3 C -4,3 C -4,2 C 88 % 1013,6 hPa 0,0 l/m 1,6 km/h (1 Bft) NO 45 0 min 0,000 mm 11 W/m -6,0 C -4,3 C 8,0 km/h (2 Bft) 98 %
28.12.2014 09:20 -4,3 C -4,3 C -4,3 C 88 % 1014,0 hPa 0,0 l/m 1,6 km/h (1 Bft) NO 45 0 min 0,000 mm 12 W/m -6,0 C -4,3 C 14,5 km/h (3 Bft) 97 %
28.12.2014 09:30 -4,3 C -4,3 C -4,3 C 88 % 1014,2 hPa 0,0 l/m 1,6 km/h (1 Bft) NO 45 0 min 0,000 mm 21 W/m -6,0 C -4,3 C 11,3 km/h (2 Bft) 97 %
28.12.2014 09:40 -4,3 C -4,3 C -4,3 C 88 % 1014,4 hPa 0,0 l/m 1,6 km/h (1 Bft) NO 45 0 min 0,000 mm 25 W/m -6,0 C -4,3 C 16,1 km/h (3 Bft) 97 %
28.12.2014 09:50 -4,3 C -4,3 C -4,3 C 87 % 1014,7 hPa 0,0 l/m 1,6 km/h (1 Bft) NO 45 0 min 0,000 mm 23 W/m -6,1 C -4,3 C 9,7 km/h (2 Bft) 98 %
28.12.2014 10:00 -4,4 C -4,4 C -4,3 C 87 % 1015,1 hPa 0,0 l/m 1,6 km/h (1 Bft) N-NO 22 0 min 0,000 mm 23 W/m -6,2 C -4,4 C 8,0 km/h (2 Bft) 97 %
28.12.2014 10:10 -4,4 C -4,4 C -4,4 C 86 % 1015,5 hPa 0,0 l/m 1,6 km/h (1 Bft) N-NO 22 0 min 0,000 mm 21 W/m -6,4 C -4,4 C 19,3 km/h (3 Bft) 98 %
28.12.2014 10:20 -4,6 C -4,6 C -4,4 C 87 % 1015,7 hPa 0,0 l/m 1,6 km/h (1 Bft) NO 45 0 min 0,000 mm 26 W/m -6,4 C -4,6 C 8,0 km/h (2 Bft) 97 %
28.12.2014 10:30 -4,7 C -4,7 C -4,6 C 86 % 1016,1 hPa 0,0 l/m 1,6 km/h (1 Bft) NO 45 0 min 0,000 mm 33 W/m -6,7 C -4,7 C 8,0 km/h (2 Bft) 98 %
28.12.2014 10:40 -4,7 C -4,7 C -4,7 C 86 % 1016,3 hPa 0,0 l/m 1,6 km/h (1 Bft) NO 45 0 min 0,000 mm 37 W/m -6,7 C -4,7 C 16,1 km/h (3 Bft) 98 %
28.12.2014 10:50 -4,6 C -4,7 C -4,6 C 87 % 1016,7 hPa 0,0 l/m 1,6 km/h (1 Bft) NO 45 0 min 0,000 mm 42 W/m -6,4 C -4,6 C 14,5 km/h (3 Bft) 88 %
28.12.2014 11:00 -4,6 C -4,6 C -4,6 C 86 % 1017,1 hPa 0,0 l/m 1,6 km/h (1 Bft) N-NO 22 0 min 0,000 mm 44 W/m -6,6 C -4,6 C 11,3 km/h (2 Bft) 98 %
28.12.2014 11:10 -4,8 C -4,8 C -4,6 C 84 % 1017,3 hPa 0,0 l/m 1,6 km/h (1 Bft) NO 45 0 min 0,000 mm 47 W/m -7,1 C -4,8 C 11,3 km/h (2 Bft) 97 %
28.12.2014 11:20 -4,9 C -4,9 C -4,8 C 84 % 1017,7 hPa 0,0 l/m 1,6 km/h (1 Bft) NO 45 0 min 0,000 mm 53 W/m -7,2 C -4,9 C 14,5 km/h (3 Bft) 98 %
28.12.2014 11:40 -5,1 C -5,1 C -4,8 C 83 % 1018,0 hPa 0,0 l/m 1,8 km/h (1 Bft) NO 44 0 min 0,000 mm 40 W/m -7,5 C -5,1 C 17,7 km/h (3 Bft) 100 %
28.12.2014 11:50 -5,3 C -5,3 C -5,1 C 82 % 1018,4 hPa 0,0 l/m 0,9 km/h (0 Bft) N-NO 15 0 min 0,000 mm 40 W/m -7,9 C -5,3 C 6,4 km/h (2 Bft) 100 %
28.12.2014 12:00 -5,4 C -5,4 C -5,3 C 83 % 1018,6 hPa 0,0 l/m 0,6 km/h (0 Bft) N-NO 17 0 min 0,025 mm 53 W/m -7,8 C -5,4 C 6,4 km/h (2 Bft) 100 %
28.12.2014 12:10 -5,2 C -5,4 C -5,2 C 83 % 1018,9 hPa 0,0 l/m 0,3 km/h (0 Bft) N-NW 346 0 min 0,000 mm 84 W/m -7,6 C -5,2 C 4,8 km/h (1 Bft) 100 %
28.12.2014 12:20 -4,6 C -5,2 C -4,6 C 82 % 1019,0 hPa 0,0 l/m 0,5 km/h (0 Bft) N 355 0 min 0,000 mm 132 W/m -7,2 C -4,6 C 9,7 km/h (2 Bft) 100 %
28.12.2014 12:30 -3,9 C -4,6 C -3,9 C 81 % 1019,1 hPa 0,0 l/m 1,3 km/h (1 Bft) N-NW 331 0 min 0,000 mm 125 W/m -6,7 C -3,9 C 11,3 km/h (2 Bft) 100 %
28.12.2014 12:40 -3,8 C -3,9 C -3,8 C 77 % 1019,5 hPa 0,0 l/m 0,6 km/h (0 Bft) NO 34 0 min 0,000 mm 149 W/m -7,2 C -3,8 C 6,4 km/h (2 Bft) 91 %
28.12.2014 12:50 -3,6 C -3,8 C -3,6 C 77 % 1019,6 hPa 0,0 l/m 2,1 km/h (1 Bft) N 9 10 min 0,000 mm 162 W/m -7,0 C -3,6 C 16,1 km/h (3 Bft) 100 %
28.12.2014 13:00 -3,8 C -3,8 C -3,6 C 75 % 1019,9 hPa 0,0 l/m 1,8 km/h (1 Bft) N-NO 32 0 min 0,000 mm 86 W/m -7,6 C -3,8 C 9,7 km/h (2 Bft) 99 %
28.12.2014 13:10 -4,1 C -4,1 C -3,8 C 75 % 1019,9 hPa 0,0 l/m 1,8 km/h (1 Bft) NO 42 0 min 0,025 mm 139 W/m -7,9 C -4,1 C 24,1 km/h (4 Bft) 100 %
28.12.2014 13:20 -4,5 C -4,5 C -4,1 C 74 % 1020,3 hPa 0,0 l/m 2,2 km/h (1 Bft) N-NO 13 0 min 0,001 mm 81 W/m -8,4 C -4,5 C 11,3 km/h (2 Bft) 91 %
28.12.2014 13:30 -4,8 C -4,8 C -4,5 C 77 % 1020,6 hPa 0,0 l/m 1,2 km/h (1 Bft) NO 38 0 min 0,000 mm 47 W/m -8,2 C -4,8 C 9,7 km/h (2 Bft) 100 %
28.12.2014 13:40 -5,1 C -5,1 C -4,8 C 75 % 1020,8 hPa 0,0 l/m 1,4 km/h (1 Bft) N-NW 348 0 min 0,000 mm 49 W/m -8,8 C -5,1 C 9,7 km/h (2 Bft) 100 %
28.12.2014 13:50 -5,4 C -5,4 C -5,1 C 75 % 1021,1 hPa 0,0 l/m 0,9 km/h (0 Bft) O-NO 61 0 min 0,000 mm 33 W/m -9,1 C -5,4 C 11,3 km/h (2 Bft) 100 %
28.12.2014 14:00 -5,7 C -5,7 C -5,4 C 75 % 1021,3 hPa 0,0 l/m 0,4 km/h (0 Bft) N-NO 28 0 min 0,000 mm 53 W/m -9,4 C -5,7 C 4,8 km/h (1 Bft) 100 %
28.12.2014 14:10 -5,7 C -5,8 C -5,7 C 76 % 1021,5 hPa 0,0 l/m 0,6 km/h (0 Bft) N-NO 17 0 min 0,025 mm 42 W/m -9,2 C -5,7 C 4,8 km/h (1 Bft) 100 %
28.12.2014 14:20 -5,7 C -5,8 C -5,7 C 77 % 1021,7 hPa 0,0 l/m 1,0 km/h (0 Bft) N 5 0 min 0,000 mm 42 W/m -9,1 C -5,7 C 8,0 km/h (2 Bft) 100 %
28.12.2014 14:30 -5,3 C -5,7 C -5,3 C 77 % 1022,0 hPa 0,0 l/m 1,0 km/h (0 Bft) NO 44 0 min 0,000 mm 37 W/m -8,7 C -5,3 C 8,0 km/h (2 Bft) 100 %
28.12.2014 14:40 -5,0 C -5,3 C -5,0 C 74 % 1022,1 hPa 0,0 l/m 1,6 km/h (1 Bft) NO 37 0 min 0,000 mm 30 W/m -8,9 C -5,0 C 12,9 km/h (3 Bft) 100 %
28.12.2014 14:50 -4,8 C -5,0 C -4,8 C 73 % 1022,3 hPa 0,0 l/m 0,9 km/h (0 Bft) O-NO 60 0 min 0,000 mm 25 W/m -8,9 C -4,8 C 6,4 km/h (2 Bft) 100 %
28.12.2014 15:00 -4,8 C -4,8 C -4,8 C 74 % 1022,6 hPa 0,0 l/m 1,4 km/h (1 Bft) N 5 0 min 0,000 mm 23 W/m -8,7 C -4,8 C 14,5 km/h (3 Bft) 100 %
28.12.2014 15:10 -4,9 C -4,9 C -4,8 C 73 % 1022,9 hPa 0,0 l/m 1,4 km/h (1 Bft) NO 36 0 min 0,025 mm 21 W/m -9,0 C -4,9 C 8,0 km/h (2 Bft) 100 %
28.12.2014 15:20 -4,9 C -4,9 C -4,9 C 72 % 1023,1 hPa 0,0 l/m 1,0 km/h (0 Bft) NO 39 0 min 0,001 mm 19 W/m -9,1 C -4,9 C 6,4 km/h (2 Bft) 99 %
28.12.2014 15:30 -5,1 C -5,1 C -4,9 C 72 % 1023,3 hPa 0,0 l/m 0,8 km/h (0 Bft) NO 36 0 min 0,000 mm 16 W/m -9,3 C -5,1 C 9,7 km/h (2 Bft) 100 %
28.12.2014 15:40 -5,1 C -5,1 C -5,1 C 71 % 1023,5 hPa 0,0 l/m 0,5 km/h (0 Bft) N-NO 21 0 min 0,000 mm 14 W/m -9,5 C -5,1 C 4,8 km/h (1 Bft) 100 %
28.12.2014 15:50 -5,2 C -5,2 C -5,1 C 72 % 1023,9 hPa 0,0 l/m 0,3 km/h (0 Bft) NO 35 0 min 0,000 mm 12 W/m -9,4 C -5,2 C 4,8 km/h (1 Bft) 100 %
28.12.2014 16:00 -5,2 C -5,2 C -5,2 C 72 % 1024,2 hPa 0,0 l/m 0,3 km/h (0 Bft) NO 35 0 min 0,000 mm 11 W/m -9,4 C -5,2 C 3,2 km/h (1 Bft) 100 %
28.12.2014 16:10 -5,4 C -5,4 C -5,2 C 71 % 1024,3 hPa 0,0 l/m 0,3 km/h (0 Bft) N-NO 26 0 min 0,000 mm 7 W/m -9,8 C -5,4 C 4,8 km/h (1 Bft) 99 %
28.12.2014 16:20 -5,8 C -5,8 C -5,4 C 72 % 1024,7 hPa 0,0 l/m 0,1 km/h (0 Bft) N-NO 26 0 min 0,000 mm 0 W/m -10,0 C -5,8 C 1,6 km/h (1 Bft) 100 %
28.12.2014 16:30 -6,2 C -6,2 C -5,8 C 74 % 1025,0 hPa 0,0 l/m 0,0 km/h (0 Bft) O 80 0 min 0,000 mm 0 W/m -10,1 C -6,2 C 0,0 km/h (0 Bft) 100 %
28.12.2014 16:40 -6,6 C -6,6 C -6,2 C 75 % 1025,4 hPa 0,0 l/m 0,0 km/h (0 Bft) N-NW 342 0 min 0,000 mm 0 W/m -10,3 C -6,6 C 1,6 km/h (1 Bft) 100 %
28.12.2014 16:50 -6,8 C -6,8 C -6,6 C 75 % 1025,8 hPa 0,0 l/m 0,0 km/h (0 Bft) N-NW 342 0 min 0,000 mm 0 W/m -10,5 C -6,8 C 0,0 km/h (0 Bft) 100 %
28.12.2014 17:00 -7,1 C -7,1 C -6,8 C 76 % 1026,1 hPa 0,0 l/m 0,0 km/h (0 Bft) N-NW 342 0 min 0,000 mm 0 W/m -10,6 C -7,1 C 0,0 km/h (0 Bft) 100 %
28.12.2014 17:10 -7,4 C -7,4 C -7,1 C 77 % 1026,4 hPa 0,0 l/m 0,0 km/h (0 Bft) N-NW 342 0 min 0,000 mm 0 W/m -10,7 C -7,4 C 0,0 km/h (0 Bft) 100 %
28.12.2014 17:20 -7,7 C -7,7 C -7,4 C 79 % 1026,7 hPa 0,0 l/m 0,0 km/h (0 Bft) N-NW 342 0 min 0,000 mm 0 W/m -10,7 C -7,7 C 0,0 km/h (0 Bft) 99 %
28.12.2014 17:30 -7,8 C -7,8 C -7,7 C 80 % 1026,8 hPa 0,0 l/m 0,0 km/h (0 Bft) N-NW 342 0 min 0,000 mm 0 W/m -10,6 C -7,8 C 0,0 km/h (0 Bft) 91 %
28.12.2014 17:40 -8,1 C -8,1 C -7,8 C 80 % 1027,2 hPa 0,0 l/m 0,0 km/h (0 Bft) N-NW 344 0 min 0,000 mm 0 W/m -10,9 C -8,1 C 0,0 km/h (0 Bft) 100 %
28.12.2014 17:50 -8,3 C -8,3 C -8,1 C 81 % 1027,3 hPa 0,0 l/m 0,0 km/h (0 Bft) N-NW 344 0 min 0,000 mm 0 W/m -11,0 C -8,3 C 0,0 km/h (0 Bft) 98 %
28.12.2014 18:00 -8,5 C -8,5 C -8,3 C 82 % 1027,5 hPa 0,0 l/m 0,0 km/h (0 Bft) N-NW 344 0 min 0,000 mm 0 W/m -11,0 C -8,5 C 0,0 km/h (0 Bft) 100 %
28.12.2014 18:10 -8,6 C -8,6 C -8,5 C 83 % 1027,9 hPa 0,0 l/m 0,0 km/h (0 Bft) N-NW 344 0 min 0,000 mm 0 W/m -11,0 C -8,6 C 0,0 km/h (0 Bft) 100 %
28.12.2014 18:20 -8,6 C -8,6 C -8,6 C 83 % 1028,1 hPa 0,0 l/m 0,0 km/h (0 Bft) N-NW 344 0 min 0,000 mm 0 W/m -11,0 C -8,6 C 0,0 km/h (0 Bft) 99 %
28.12.2014 18:30 -8,5 C -8,6 C -8,5 C 81 % 1028,3 hPa 0,0 l/m 0,0 km/h (0 Bft) N-NW 344 0 min 0,000 mm 0 W/m -11,2 C -8,5 C 0,0 km/h (0 Bft) 100 %
28.12.2014 18:40 -8,4 C -8,5 C -8,4 C 83 % 1028,5 hPa 0,0 l/m 0,0 km/h (0 Bft) N-NW 344 0 min 0,000 mm 0 W/m -10,8 C -8,4 C 0,0 km/h (0 Bft) 91 %
28.12.2014 18:50 -8,3 C -8,4 C -8,3 C 83 % 1028,8 hPa 0,0 l/m 0,0 km/h (0 Bft) N-NW 344 0 min 0,000 mm 0 W/m -10,7 C -8,3 C 0,0 km/h (0 Bft) 100 %
28.12.2014 19:00 -8,4 C -8,4 C -8,3 C 80 % 1029,2 hPa 0,0 l/m 0,0 km/h (0 Bft) N-NW 344 0 min 0,000 mm 0 W/m -11,2 C -8,4 C 1,6 km/h (1 Bft) 99 %
28.12.2014 19:10 -8,7 C -8,7 C -8,4 C 82 % 1029,4 hPa 0,0 l/m 0,0 km/h (0 Bft) N-NW 344 0 min 0,000 mm 0 W/m -11,2 C -8,7 C 0,0 km/h (0 Bft) 97 %
28.12.2014 19:20 -8,8 C -8,8 C -8,7 C 83 % 1029,8 hPa 0,0 l/m 0,0 km/h (0 Bft) N-NW 344 0 min 0,000 mm 0 W/m -11,1 C -8,8 C 0,0 km/h (0 Bft) 98 %
28.12.2014 19:30 -9,2 C -9,2 C -8,8 C 82 % 1030,0 hPa 0,0 l/m 0,0 km/h (0 Bft) N 5 0 min 0,000 mm 0 W/m -11,7 C -9,2 C 1,6 km/h (1 Bft) 89 %
28.12.2014 19:40 -9,3 C -9,3 C -9,2 C 83 % 1030,3 hPa 0,0 l/m 0,0 km/h (0 Bft) N-NO 13 0 min 0,000 mm 0 W/m -11,6 C -9,3 C 0,0 km/h (0 Bft) 98 %
28.12.2014 19:50 -9,7 C -9,7 C -9,3 C 85 % 1030,4 hPa 0,0 l/m 0,0 km/h (0 Bft) N-NO 14 0 min 0,000 mm 0 W/m -11,7 C -9,7 C 1,6 km/h (1 Bft) 97 %
28.12.2014 20:00 -9,4 C -9,7 C -9,4 C 86 % 1030,6 hPa 0,0 l/m 0,0 km/h (0 Bft) N-NO 15 0 min 0,000 mm 0 W/m -11,3 C -9,4 C 1,6 km/h (1 Bft) 98 %
28.12.2014 20:10 -9,4 C -9,4 C -9,4 C 85 % 1030,9 hPa 0,0 l/m 0,0 km/h (0 Bft) N-NO 15 0 min 0,000 mm 0 W/m -11,4 C -9,4 C 1,6 km/h (1 Bft) 97 %
28.12.2014 20:20 -9,4 C -9,4 C -9,4 C 85 % 1031,2 hPa 0,0 l/m 0,0 km/h (0 Bft) N-NO 15 0 min 0,000 mm 0 W/m -11,4 C -9,4 C 1,6 km/h (1 Bft) 98 %
28.12.2014 20:30 -9,1 C -9,4 C -9,1 C 86 % 1031,2 hPa 0,0 l/m 0,0 km/h (0 Bft) N-NO 15 0 min 0,000 mm 0 W/m -11,0 C -9,1 C 1,6 km/h (1 Bft) 97 %
28.12.2014 20:40 -9,1 C -9,1 C -9,0 C 85 % 1031,3 hPa 0,0 l/m 0,0 km/h (0 Bft) N-NO 15 0 min 0,000 mm 0 W/m -11,1 C -9,1 C 0,0 km/h (0 Bft) 97 %
28.12.2014 20:50 -9,2 C -9,2 C -9,1 C 85 % 1031,3 hPa 0,0 l/m 0,0 km/h (0 Bft) N-NO 15 0 min 0,000 mm 0 W/m -11,2 C -9,2 C 0,0 km/h (0 Bft) 98 %
28.12.2014 21:00 -9,2 C -9,2 C -9,2 C 85 % 1031,6 hPa 0,0 l/m 0,0 km/h (0 Bft) N-NO 15 0 min 0,000 mm 0 W/m -11,2 C -9,2 C 0,0 km/h (0 Bft) 97 %
28.12.2014 21:10 -9,4 C -9,5 C -9,2 C 85 % 1031,7 hPa 0,0 l/m 0,0 km/h (0 Bft) N 0 0 min 0,000 mm 0 W/m -11,4 C -9,4 C 0,0 km/h (0 Bft) 100 %
28.12.2014 21:20 -9,7 C -9,7 C -9,4 C 84 % 1032,0 hPa 0,0 l/m 0,0 km/h (0 Bft) N 0 0 min 0,000 mm 0 W/m -11,9 C -9,7 C 0,0 km/h (0 Bft) 100 %
28.12.2014 21:30 -9,9 C -9,9 C -9,7 C 84 % 1032,1 hPa 0,0 l/m 0,0 km/h (0 Bft) N 0 0 min 0,000 mm 0 W/m -12,1 C -9,9 C 0,0 km/h (0 Bft) 100 %
28.12.2014 21:40 -10,2 C -10,2 C -9,9 C 85 % 1032,1 hPa 0,0 l/m 0,0 km/h (0 Bft) N-NO 22 0 min 0,000 mm 0 W/m -12,2 C -10,2 C 1,6 km/h (1 Bft) 100 %
28.12.2014 21:50 -10,2 C -10,2 C -10,1 C 86 % 1032,2 hPa 0,0 l/m 0,0 km/h (0 Bft) N 0 0 min 0,000 mm 0 W/m -12,1 C -10,2 C 0,0 km/h (0 Bft) 89 %
28.12.2014 22:00 -10,1 C -10,2 C -10,1 C 86 % 1032,4 hPa 0,0 l/m 0,0 km/h (0 Bft) N 0 0 min 0,000 mm 0 W/m -12,0 C -10,1 C 0,0 km/h (0 Bft) 100 %
28.12.2014 22:10 -10,5 C -10,5 C -10,1 C 85 % 1032,4 hPa 0,0 l/m 0,0 km/h (0 Bft) N 0 0 min 0,000 mm 0 W/m -12,5 C -10,5 C 0,0 km/h (0 Bft) 100 %
28.12.2014 22:20 -10,7 C -10,7 C -10,5 C 87 % 1032,4 hPa 0,0 l/m 0,0 km/h (0 Bft) N 0 0 min 0,000 mm 0 W/m -12,4 C -10,7 C 0,0 km/h (0 Bft) 99 %
28.12.2014 22:30 -10,9 C -10,9 C -10,7 C 87 % 1032,3 hPa 0,0 l/m 0,0 km/h (0 Bft) N 0 0 min 0,000 mm 0 W/m -12,6 C -10,9 C 0,0 km/h (0 Bft) 91 %
28.12.2014 22:40 -11,1 C -11,1 C -10,9 C 88 % 1032,5 hPa 0,0 l/m 0,0 km/h (0 Bft) N-NO 22 0 min 0,000 mm 0 W/m -12,7 C -11,1 C 1,6 km/h (1 Bft) 100 %
28.12.2014 22:50 -11,2 C -11,2 C -11,1 C 88 % 1032,7 hPa 0,0 l/m 0,0 km/h (0 Bft) N 360 0 min 0,000 mm 0 W/m -12,8 C -11,2 C 3,2 km/h (1 Bft) 100 %
28.12.2014 23:00 -11,2 C -11,3 C -11,2 C 89 % 1032,8 hPa 0,0 l/m 0,0 km/h (0 Bft) N 0 0 min 0,000 mm 0 W/m -12,6 C -11,2 C 0,0 km/h (0 Bft) 100 %
28.12.2014 23:10 -11,1 C -11,2 C -11,1 C 89 % 1032,8 hPa 0,0 l/m 0,0 km/h (0 Bft) N 360 0 min 0,000 mm 0 W/m -12,5 C -11,1 C 1,6 km/h (1 Bft) 91 %
28.12.2014 23:20 -11,0 C -11,1 C -11,0 C 89 % 1032,8 hPa 0,0 l/m 0,0 km/h (0 Bft) N 0 0 min 0,000 mm 0 W/m -12,4 C -11,0 C 0,0 km/h (0 Bft) 100 %
28.12.2014 23:30 -10,8 C -11,0 C -10,8 C 90 % 1032,8 hPa 0,0 l/m 0,0 km/h (0 Bft) N 360 0 min 0,000 mm 0 W/m -12,1 C -10,8 C 1,6 km/h (1 Bft) 100 %
28.12.2014 23:40 -10,7 C -10,8 C -10,7 C 90 % 1032,9 hPa 0,0 l/m 0,0 km/h (0 Bft) N 0 0 min 0,000 mm 0 W/m -12,0 C -10,7 C 0,0 km/h (0 Bft) 100 %
28.12.2014 23:50 -10,6 C -10,7 C -10,6 C 90 % 1033,0 hPa 0,0 l/m 0,0 km/h (0 Bft) N 0 0 min 0,000 mm 0 W/m -11,9 C -10,6 C 0,0 km/h (0 Bft) 100 %
_ Min-Zeit 23:00 23:00 23:00 15:40 00:00 - 00:00 - - - - - 22:50 22:50 16:30 02:00
Minimum _ -11,3 C -11,3 C -11,2 C 71 % 1000,3 hPa - 0,0 km/h (0 Bft) - - - - - -12,8 C -11,2 C 0,0 km/h (0 Bft) 87 %
_ Max-Zeit 00:00 00:00 00:00 02:10 23:50 00:10 05:10 - - 12:50 12:00 12:50 00:00 00:00 13:10 11:40
Maximum _ -2,5 C -2,6 C -2,5 C 93 % 1033,0 hPa 0,1 l/m 4,8 km/h
NO (1 Bft)
- - 10 min 0,025 mm 162 W/m -3,7 C -2,6 C 24,1 km/h
NW (4 Bft)
100 %
Durchschnitt _ -5,7 C -5,7 C -5,6 C 85 % 1017,5 hPa #0,4 l/m 0,8 km/h (0 Bft) NO - #10 min. #0,102 mm 45 W/m -7,8 C -5,7 C 6,1 km/h (2 Bft) 98 %
PRIVATE WETTERSTATION BILLIGHEIM-ALLFELD - www.neckar-odenwald-wetter.de - Holger Sonntag